Time;durP1;ratioP1;P1;durP2;ratioP2;P2;SDS_P1;SDS_P2;PMS_P1;PMS_P2;Temp;Humidity;BMP_temperature;BMP_pressure;BME280_temperature;BME280_humidity;BME280_pressure;Samples;Min_cycle;Max_cycle;Signal;HPM_P1;HPM_P2
2023/10/24 00:02:21;;;;;;;8.88;4.55;;;;;;;11.35;67.33;97199.44;10360574;28;20099;-72
2023/10/24 00:07:43;;;;;;;10.73;5.43;;;;;;;11.33;67.20;97204.94;10374680;28;20046;-72
2023/10/24 00:13:05;;;;;;;10.02;5.00;;;;;;;11.21;67.60;97190.28;10361412;28;20046;-72
2023/10/24 00:18:26;;;;;;;12.55;5.80;;;;;;;11.21;67.71;97193.81;10373691;28;20042;-72
2023/10/24 00:23:47;;;;;;;11.48;5.50;;;;;;;11.15;68.16;97194.19;10373429;28;20103;-72
2023/10/24 00:29:08;;;;;;;11.73;4.78;;;;;;;11.21;69.23;97193.06;10386265;28;20041;-72
2023/10/24 00:34:29;;;;;;;8.80;4.90;;;;;;;11.28;68.54;97206.75;10371287;28;20075;-73
2023/10/24 00:39:50;;;;;;;12.80;5.03;;;;;;;11.28;68.42;97187.19;10407382;28;20116;-73
2023/10/24 00:45:11;;;;;;;11.18;5.00;;;;;;;11.32;69.02;97203.47;10395194;28;20116;-72
2023/10/24 00:50:32;;;;;;;12.93;5.50;;;;;;;11.36;69.16;97192.50;10381031;28;20068;-73
2023/10/24 00:55:53;;;;;;;10.52;4.68;;;;;;;11.42;69.52;97198.44;10381027;28;20103;-72
2023/10/24 01:01:14;;;;;;;11.48;5.18;;;;;;;11.44;69.25;97176.19;10407958;28;20438;-73
2023/10/24 01:06:36;;;;;;;11.48;4.93;;;;;;;11.34;69.02;97175.63;10407956;28;20045;-71
2023/10/24 01:11:57;;;;;;;8.43;4.55;;;;;;;11.26;69.47;97203.13;10407998;28;20096;-72
2023/10/24 01:17:18;;;;;;;13.63;4.82;;;;;;;11.23;68.98;97184.81;10393434;28;20045;-72
2023/10/24 01:22:39;;;;;;;8.82;4.95;;;;;;;11.09;69.97;97198.69;10379948;28;20095;-72
2023/10/24 01:28:00;;;;;;;8.43;4.45;;;;;;;11.14;70.39;97195.50;10407096;28;20115;-73
2023/10/24 01:33:21;;;;;;;9.48;5.13;;;;;;;11.10;70.19;97183.41;10406955;28;20046;-72
2023/10/24 01:38:42;;;;;;;10.65;5.68;;;;;;;11.05;70.24;97168.47;10406625;28;20069;-71
2023/10/24 01:44:03;;;;;;;13.73;5.82;;;;;;;10.97;71.38;97158.91;10403400;28;20048;-73
2023/10/24 01:49:25;;;;;;;11.73;5.25;;;;;;;10.85;70.81;97154.09;10404027;28;20044;-72
2023/10/24 01:54:46;;;;;;;11.48;5.43;;;;;;;10.90;70.61;97160.63;10404314;28;20117;-71
2023/10/24 02:00:07;;;;;;;11.13;5.50;;;;;;;10.89;71.01;97142.41;10377819;28;20494;-73
2023/10/24 02:05:35;;;;;;;12.43;5.65;;;;;;;10.85;71.51;97145.72;10403338;28;20045;-73
2023/10/24 02:10:56;;;;;;;12.32;5.53;;;;;;;10.79;71.28;97136.97;10417694;28;20040;-73
2023/10/24 02:16:17;;;;;;;12.85;5.45;;;;;;;10.85;71.52;97156.16;10402448;28;20041;-73
2023/10/24 02:21:38;;;;;;;10.85;5.22;;;;;;;10.80;71.43;97160.03;10390844;28;20041;-73
2023/10/24 02:26:59;;;;;;;10.52;4.97;;;;;;;10.83;72.82;97150.47;10404015;28;20049;-74
2023/10/24 02:32:20;;;;;;;11.18;5.10;;;;;;;10.86;72.02;97152.03;10419283;28;20048;-73
2023/10/24 02:37:41;;;;;;;11.10;5.55;;;;;;;10.90;71.79;97143.88;10400001;28;20049;-75
2023/10/24 02:43:02;;;;;;;15.55;5.60;;;;;;;10.86;71.90;97126.91;10388925;28;20044;-73
2023/10/24 02:48:23;;;;;;;11.98;5.35;;;;;;;10.77;72.44;97161.28;10376909;28;20396;-73
2023/10/24 02:53:45;;;;;;;11.30;5.93;;;;;;;10.77;71.97;97175.22;10389926;28;20049;-73
2023/10/24 02:59:06;;;;;;;14.10;5.50;;;;;;;10.86;71.99;97160.41;10378716;28;20103;-73
2023/10/24 03:04:28;;;;;;;12.30;5.38;;;;;;;10.78;72.37;97157.88;10403591;28;20399;-73
2023/10/24 03:09:49;;;;;;;10.32;5.80;;;;;;;10.80;72.04;97146.09;10391053;28;20468;-72
2023/10/24 03:15:10;;;;;;;9.35;5.32;;;;;;;10.77;72.55;97136.16;10391282;28;20041;-75
2023/10/24 03:20:31;;;;;;;14.10;5.55;;;;;;;10.80;72.72;97112.59;10375376;28;20041;-73
2023/10/24 03:25:52;;;;;;;13.18;5.95;;;;;;;10.85;72.91;97111.47;10374891;28;20037;-74
2023/10/24 03:31:13;;;;;;;8.73;5.15;;;;;;;10.92;72.91;97113.28;10386910;28;20088;-73
2023/10/24 03:36:34;;;;;;;10.32;4.93;;;;;;;10.89;72.76;97109.63;10387548;28;20392;-73
2023/10/24 03:41:56;;;;;;;11.85;5.55;;;;;;;10.89;72.70;97081.00;10386808;28;20052;-73
2023/10/24 03:47:17;;;;;;;10.02;5.80;;;;;;;10.79;72.99;97091.59;10386766;28;20499;-74
2023/10/24 03:52:38;;;;;;;9.85;5.15;;;;;;;10.79;73.33;97094.38;10400680;28;20050;-73
2023/10/24 03:57:59;;;;;;;11.00;5.00;;;;;;;10.83;73.13;97116.97;10373208;28;20041;-74
2023/10/24 04:03:20;;;;;;;11.45;5.05;;;;;;;10.86;73.44;97127.63;10385041;28;20041;-74
2023/10/24 04:08:42;;;;;;;8.60;4.95;;;;;;;10.86;73.32;97115.72;10399988;28;20042;-73
2023/10/24 04:14:03;;;;;;;9.73;4.72;;;;;;;10.84;73.56;97115.63;10384174;28;20044;-74
2023/10/24 04:19:24;;;;;;;13.23;4.97;;;;;;;10.90;73.12;97110.34;10385016;28;20044;-73
2023/10/24 04:24:45;;;;;;;9.27;5.32;;;;;;;10.94;73.77;97116.19;10372324;28;20049;-71
2023/10/24 04:30:07;;;;;;;10.75;5.50;;;;;;;10.91;73.79;97125.06;10385770;28;20373;-73
2023/10/24 04:35:27;;;;;;;9.10;4.80;;;;;;;10.88;73.79;97127.00;10399097;28;20045;-73
2023/10/24 04:40:52;;;;;;;11.38;5.30;;;;;;;10.94;73.60;97124.56;10396843;28;20061;-73
2023/10/24 04:46:12;;;;;;;9.32;5.00;;;;;;;10.99;73.99;97122.72;10369610;28;20496;-74
2023/10/24 04:51:33;;;;;;;8.98;5.00;;;;;;;11.05;73.68;97114.69;10385488;28;20054;-72
2023/10/24 04:56:55;;;;;;;10.25;5.45;;;;;;;11.06;73.64;97102.16;10395570;28;20045;-72
2023/10/24 05:02:15;;;;;;;9.77;5.35;;;;;;;11.08;73.97;97107.84;10385786;28;20041;-73
2023/10/24 05:07:37;;;;;;;10.65;5.68;;;;;;;11.11;73.89;97126.91;10410973;28;20069;-71
2023/10/24 05:12:58;;;;;;;9.88;5.20;;;;;;;11.14;74.36;97127.75;10385012;28;20487;-72
2023/10/24 05:18:19;;;;;;;9.05;5.22;;;;;;;11.15;74.02;97090.81;10386260;28;20065;-73
2023/10/24 05:23:40;;;;;;;10.40;5.88;;;;;;;11.07;73.09;97056.13;10388842;28;20045;-73
2023/10/24 05:29:01;;;;;;;14.68;6.63;;;;;;;10.80;73.79;97048.38;10393244;28;20099;-73
2023/10/24 05:34:22;;;;;;;12.43;6.40;;;;;;;10.66;73.56;97050.38;10393242;28;20042;-73
2023/10/24 05:39:43;;;;;;;13.75;6.57;;;;;;;10.51;73.89;97054.44;10393264;28;20042;-72
2023/10/24 05:45:05;;;;;;;15.15;6.65;;;;;;;10.52;75.30;97051.06;10406757;28;20049;-72
2023/10/24 05:50:26;;;;;;;12.45;6.10;;;;;;;10.52;74.42;97064.28;10378987;28;20041;-71
2023/10/24 05:55:47;;;;;;;11.93;5.95;;;;;;;10.62;74.62;97047.38;10392185;28;20048;-71
2023/10/24 06:01:08;;;;;;;14.35;6.18;;;;;;;10.69;74.95;97047.09;10405810;28;20041;-71
2023/10/24 06:06:29;;;;;;;12.75;5.90;;;;;;;10.89;74.73;97072.59;10378329;28;20061;-71
2023/10/24 06:11:51;;;;;;;13.93;5.30;;;;;;;11.12;74.46;97063.41;10405586;28;20541;-71
2023/10/24 06:17:17;;;;;;;10.88;5.88;;;;;;;11.47;74.57;97072.28;10391182;28;20052;-71
2023/10/24 06:22:38;;;;;;;11.55;5.40;;;;;;;11.86;74.45;97068.72;10380927;28;20037;-72
2023/10/24 06:27:59;;;;;;;11.20;6.45;;;;;;;12.05;73.63;97062.00;10391239;28;20053;-73
2023/10/24 06:33:20;;;;;;;12.43;6.45;;;;;;;12.38;73.49;97060.84;10404937;28;20037;-72
2023/10/24 06:38:40;;;;;;;12.38;6.03;;;;;;;12.84;73.22;97085.50;10418845;28;20065;-72
2023/10/24 06:44:01;;;;;;;12.50;5.93;;;;;;;12.94;72.58;97088.06;10389825;28;20053;-72
2023/10/24 06:49:22;;;;;;;12.93;6.90;;;;;;;12.81;72.41;97078.34;10401924;28;20052;-73
2023/10/24 06:54:44;;;;;;;12.82;6.18;;;;;;;12.86;72.34;97066.00;10388812;28;20407;-72
2023/10/24 07:00:06;;;;;;;14.60;6.85;;;;;;;13.01;72.16;97063.84;10403663;28;20057;-73
2023/10/24 07:05:28;;;;;;;15.38;6.18;;;;;;;12.88;71.86;97059.75;10403105;28;20125;-73
2023/10/24 07:10:49;;;;;;;13.80;6.93;;;;;;;12.82;71.46;97046.19;10389018;28;20069;-73
2023/10/24 07:16:19;;;;;;;13.48;7.13;;;;;;;12.92;71.55;97067.63;10400230;28;20072;-73
2023/10/24 07:21:39;;;;;;;13.88;6.90;;;;;;;12.96;71.43;97039.81;10402795;28;20044;-73
2023/10/24 07:27:00;;;;;;;18.55;7.95;;;;;;;12.98;70.75;97037.13;10390016;28;20045;-73
2023/10/24 07:32:21;;;;;;;17.63;7.25;;;;;;;13.14;70.82;97015.47;10388946;28;20056;-67
2023/10/24 07:37:42;;;;;;;14.13;7.45;;;;;;;13.33;70.70;97000.94;10402050;28;20543;-66
2023/10/24 07:43:03;;;;;;;13.02;7.80;;;;;;;13.54;70.18;96982.94;10385506;28;20052;-68
2023/10/24 07:48:26;;;;;;;16.83;7.90;;;;;;;13.54;69.76;96982.22;10400797;28;20041;-67
2023/10/24 07:53:47;;;;;;;13.57;7.75;;;;;;;13.53;69.33;96963.94;10400731;28;20049;-69
2023/10/24 07:59:07;;;;;;;16.13;8.25;;;;;;;13.98;68.26;96960.94;10393237;28;20037;-68
2023/10/24 08:04:28;;;;;;;15.18;8.38;;;;;;;13.86;67.46;96966.78;10373015;28;20043;-69
2023/10/24 08:09:49;;;;;;;13.02;7.97;;;;;;;13.82;67.80;96952.59;10372715;28;20496;-69
2023/10/24 08:15:10;;;;;;;14.93;8.18;;;;;;;14.08;67.48;96941.00;10372414;28;20069;-69
2023/10/24 08:20:30;;;;;;;23.08;9.13;;;;;;;14.63;67.32;96974.13;10399967;28;20044;-67
2023/10/24 08:25:51;;;;;;;17.65;8.27;;;;;;;15.40;65.64;96965.78;10413288;28;20049;-67
2023/10/24 08:31:12;;;;;;;13.60;8.52;;;;;;;16.50;64.23;96992.81;10412927;28;20487;-68
2023/10/24 08:36:33;;;;;;;13.60;8.40;;;;;;;15.71;62.54;97027.41;10388812;28;20061;-69
2023/10/24 08:41:53;;;;;;;13.40;8.02;;;;;;;14.86;62.92;97015.75;10411947;28;20095;-69
2023/10/24 08:47:14;;;;;;;14.45;8.27;;;;;;;14.98;63.00;97002.19;10398688;28;20042;-68
2023/10/24 08:52:35;;;;;;;15.50;9.15;;;;;;;14.16;62.48;97003.06;10385372;28;20049;-68
2023/10/24 08:57:57;;;;;;;16.23;9.80;;;;;;;13.78;63.96;96983.25;10386873;28;20033;-68
2023/10/24 09:03:19;;;;;;;13.05;8.05;;;;;;;13.62;64.69;96971.34;10404537;28;20052;-67
2023/10/24 09:08:40;;;;;;;15.68;9.10;;;;;;;13.87;65.17;96951.38;10406634;28;20057;-67
2023/10/24 09:14:01;;;;;;;16.90;9.48;;;;;;;14.46;64.72;96945.38;10392606;28;20049;-68
2023/10/24 09:19:22;;;;;;;14.48;8.88;;;;;;;14.71;64.46;96946.34;10404804;28;20395;-67
2023/10/24 09:24:49;;;;;;;16.58;9.35;;;;;;;14.93;64.08;96940.84;10391048;28;20068;-67
2023/10/24 09:30:12;;;;;;;16.08;9.00;;;;;;;14.78;63.21;96942.41;10392439;28;20187;-68
2023/10/24 09:35:37;;;;;;;14.35;9.50;;;;;;;14.87;63.88;96921.69;10393007;28;20084;-67
2023/10/24 09:40:57;;;;;;;15.82;9.85;;;;;;;14.80;63.47;96920.00;10404205;28;20456;-66
2023/10/24 09:46:19;;;;;;;14.93;9.32;;;;;;;14.57;63.90;96910.75;10417521;28;20146;-66
2023/10/24 09:51:41;;;;;;;13.75;9.50;;;;;;;14.28;64.70;96913.75;10417795;28;20084;-68
2023/10/24 09:57:02;;;;;;;17.73;10.48;;;;;;;13.96;65.83;96913.88;10389763;28;20038;-68
2023/10/24 10:02:24;;;;;;;19.63;10.38;;;;;;;13.74;66.75;96904.56;10391218;28;20045;-68
2023/10/24 10:07:47;;;;;;;15.68;9.75;;;;;;;13.70;67.49;96915.59;10405614;28;20088;-68
2023/10/24 10:13:09;;;;;;;14.88;9.13;;;;;;;13.60;68.02;96917.97;10390984;28;20061;-69
2023/10/24 10:19:19;;;;;;;15.75;10.55;;;;;;;13.60;68.67;96906.75;10387224;28;20049;-68
2023/10/24 10:25:08;;;;;;;22.88;13.32;;;;;;;13.59;68.40;96905.31;10389571;28;20060;-68
2023/10/24 10:30:54;;;;;;;20.85;11.18;;;;;;;13.42;69.07;96909.53;10419591;28;20069;-68
2023/10/24 10:36:37;;;;;;;19.25;11.23;;;;;;;13.48;69.50;96901.34;10407474;28;20116;-68
2023/10/24 10:41:58;;;;;;;15.43;10.55;;;;;;;13.52;69.61;96884.00;10418991;28;20072;-68
2023/10/24 10:47:20;;;;;;;20.98;10.23;;;;;;;13.47;69.80;96885.91;10390183;28;20104;-68
2023/10/24 10:52:45;;;;;;;15.60;11.05;;;;;;;13.39;70.23;96877.88;10390603;28;20175;-68
2023/10/24 10:58:23;;;;;;;19.38;11.18;;;;;;;13.38;71.07;96865.22;10390305;28;20471;-68
2023/10/24 11:03:44;;;;;;;19.27;10.43;;;;;;;13.44;71.26;96845.84;10376563;28;20117;-68
2023/10/24 11:09:06;;;;;;;16.20;11.13;;;;;;;13.48;71.21;96828.47;10403365;28;20072;-68
2023/10/24 11:14:26;;;;;;;15.60;9.93;;;;;;;13.40;71.54;96814.84;10417866;28;20045;-68
2023/10/24 11:19:47;;;;;;;16.02;10.45;;;;;;;13.46;71.81;96809.50;10417359;28;20120;-70
2023/10/24 11:25:11;;;;;;;15.40;9.43;;;;;;;13.51;72.26;96790.03;10402642;28;20080;-67
2023/10/24 11:30:32;;;;;;;17.88;10.25;;;;;;;13.60;71.59;96772.16;10402921;28;20072;-68
2023/10/24 11:35:53;;;;;;;15.23;9.95;;;;;;;13.84;72.02;96775.22;10417430;28;20049;-68
2023/10/24 11:41:14;;;;;;;15.73;9.30;;;;;;;13.93;72.10;96768.56;10417079;28;20369;-68
2023/10/24 11:46:41;;;;;;;15.57;10.07;;;;;;;14.15;70.95;96766.63;10401895;28;20403;-68
2023/10/24 11:52:01;;;;;;;12.63;8.30;;;;;;;14.27;70.81;96732.66;10416427;28;20129;-68
2023/10/24 11:57:22;;;;;;;12.82;8.07;;;;;;;14.34;70.54;96723.09;10387528;28;20372;-68
2023/10/24 12:02:43;;;;;;;16.55;8.15;;;;;;;14.59;70.65;96699.47;10411621;28;20069;-70
2023/10/24 12:08:04;;;;;;;12.27;8.23;;;;;;;14.76;70.29;96684.59;10391664;28;20484;-68
2023/10/24 12:13:25;;;;;;;16.83;8.70;;;;;;;14.84;69.38;96692.59;10373446;28;20125;-68
2023/10/24 12:18:46;;;;;;;13.20;8.60;;;;;;;14.77;69.58;96686.06;10413729;28;20061;-68
2023/10/24 12:24:07;;;;;;;14.07;8.57;;;;;;;14.69;69.46;96685.06;10415696;28;20038;-68
2023/10/24 12:29:27;;;;;;;14.40;8.57;;;;;;;14.70;69.45;96680.88;10414381;28;20496;-68
2023/10/24 12:34:48;;;;;;;14.85;9.23;;;;;;;14.72;68.97;96676.03;10399901;28;20449;-68
2023/10/24 12:40:10;;;;;;;12.93;9.02;;;;;;;14.63;68.67;96668.00;10400490;28;20092;-68
2023/10/24 12:45:31;;;;;;;14.77;9.27;;;;;;;14.56;68.95;96664.97;10415090;28;20077;-68
2023/10/24 12:50:51;;;;;;;16.00;9.40;;;;;;;14.58;69.14;96661.53;10400161;28;20053;-68
2023/10/24 12:56:13;;;;;;;12.85;9.18;;;;;;;14.63;68.61;96648.34;10414014;28;20066;-68
2023/10/24 13:01:34;;;;;;;13.57;8.95;;;;;;;14.57;68.65;96658.00;10414858;28;20069;-67
2023/10/24 13:06:55;;;;;;;14.90;8.82;;;;;;;14.53;68.90;96680.31;10414679;28;20045;-68
2023/10/24 13:12:16;;;;;;;14.15;8.68;;;;;;;14.46;68.95;96687.06;10399621;28;20387;-68
2023/10/24 13:17:37;;;;;;;16.63;8.63;;;;;;;14.38;69.19;96675.56;10414520;28;20049;-67
2023/10/24 13:22:57;;;;;;;18.20;8.95;;;;;;;14.37;69.31;96662.84;10399703;28;20072;-68
2023/10/24 13:28:18;;;;;;;13.90;8.85;;;;;;;14.33;69.09;96677.47;10399471;28;20125;-67
2023/10/24 13:33:39;;;;;;;16.15;8.73;;;;;;;14.23;69.24;96668.69;10403118;28;20045;-69
2023/10/24 13:39:19;;;;;;;15.90;8.43;;;;;;;14.22;69.79;96667.25;10413822;28;20077;-68
2023/10/24 13:44:41;;;;;;;16.58;9.63;;;;;;;14.27;69.59;96648.47;10400187;28;20475;-68
2023/10/24 13:50:02;;;;;;;16.30;8.88;;;;;;;14.28;69.81;96638.66;10405443;28;21439;-68
2023/10/24 13:55:23;;;;;;;16.17;9.25;;;;;;;14.31;69.99;96609.31;10402819;28;20065;-67
2023/10/24 14:00:44;;;;;;;15.27;9.20;;;;;;;14.44;70.15;96580.28;10414855;28;20407;-67
2023/10/24 14:06:06;;;;;;;14.10;8.93;;;;;;;14.53;69.96;96568.00;10414364;28;20061;-68
2023/10/24 14:11:28;;;;;;;14.18;8.32;;;;;;;14.58;70.01;96568.84;10414995;28;20068;-71
2023/10/24 14:16:49;;;;;;;13.05;8.10;;;;;;;14.56;69.91;96554.72;10418466;28;20048;-69
2023/10/24 14:22:10;;;;;;;12.68;8.73;;;;;;;14.48;69.78;96552.41;10424810;28;20483;-68
2023/10/24 14:27:31;;;;;;;15.23;9.90;;;;;;;14.40;69.38;96543.66;10407605;28;20065;-67
2023/10/24 14:32:52;;;;;;;15.55;9.55;;;;;;;14.24;69.96;96548.72;10404938;28;20107;-68
2023/10/24 14:38:13;;;;;;;15.18;9.48;;;;;;;14.08;70.06;96526.44;10404632;28;20136;-66
2023/10/24 14:43:35;;;;;;;20.75;10.05;;;;;;;13.96;70.46;96520.41;10404294;28;20076;-65
2023/10/24 14:48:56;;;;;;;15.55;9.60;;;;;;;13.84;70.75;96515.09;10404437;28;20411;-65
2023/10/24 14:54:17;;;;;;;16.40;10.13;;;;;;;13.77;70.80;96493.81;10409515;28;20081;-65
2023/10/24 14:59:37;;;;;;;17.23;9.88;;;;;;;13.67;71.36;96496.25;10403359;28;20113;-66
2023/10/24 15:04:58;;;;;;;15.65;9.80;;;;;;;13.60;70.99;96483.38;10403399;28;20137;-65
2023/10/24 15:10:19;;;;;;;17.60;9.75;;;;;;;13.46;72.70;96475.91;10403420;28;20553;-65
2023/10/24 15:15:40;;;;;;;15.98;10.07;;;;;;;13.44;73.09;96483.53;10417525;28;20053;-67
2023/10/24 15:21:01;;;;;;;16.73;10.60;;;;;;;13.45;72.57;96487.78;10417322;28;20069;-68
2023/10/24 15:26:21;;;;;;;15.15;10.38;;;;;;;13.30;73.04;96483.00;10388809;28;20065;-68
2023/10/24 15:31:42;;;;;;;13.80;9.02;;;;;;;13.28;73.57;96488.53;10402078;28;20046;-67
2023/10/24 15:37:03;;;;;;;15.77;10.10;;;;;;;13.30;74.19;96489.31;10402780;28;20052;-65
2023/10/24 15:42:32;;;;;;;16.17;10.13;;;;;;;13.38;74.55;96488.91;10402871;28;20058;-65
2023/10/24 15:47:56;;;;;;;17.02;9.40;;;;;;;13.43;75.24;96479.28;10416557;28;20053;-65
2023/10/24 15:53:17;;;;;;;16.98;11.02;;;;;;;13.43;75.71;96479.28;10416324;28;20057;-66
2023/10/24 15:58:38;;;;;;;20.10;11.02;;;;;;;13.40;75.04;96489.69;10389103;28;20057;-64
2023/10/24 16:03:59;;;;;;;16.80;10.30;;;;;;;13.41;75.64;96493.97;10388137;28;20049;-66
2023/10/24 16:09:20;;;;;;;15.45;10.25;;;;;;;13.41;75.84;96477.16;10364945;28;20488;-65
2023/10/24 16:14:41;;;;;;;17.70;11.25;;;;;;;13.36;75.45;96469.94;10360260;28;20049;-67
2023/10/24 16:20:02;;;;;;;21.88;12.30;;;;;;;13.29;75.82;96479.47;10413010;28;20042;-65
2023/10/24 16:25:24;;;;;;;21.50;12.98;;;;;;;13.32;75.86;96475.41;10413913;28;20080;-68
2023/10/24 16:30:45;;;;;;;21.40;13.13;;;;;;;13.29;75.77;96461.94;10383110;28;20045;-65
2023/10/24 16:36:06;;;;;;;22.05;12.25;;;;;;;13.19;76.21;96451.09;10374199;28;20046;-65
2023/10/24 16:41:27;;;;;;;21.50;13.02;;;;;;;13.05;75.95;96444.94;10359775;28;20064;-65
2023/10/24 16:46:48;;;;;;;20.33;12.98;;;;;;;13.02;78.04;96443.41;10346117;28;20054;-66
2023/10/24 16:52:08;;;;;;;17.73;12.40;;;;;;;12.94;77.69;96431.94;10373156;28;20054;-64
2023/10/24 16:57:30;;;;;;;21.65;14.55;;;;;;;12.88;77.72;96435.94;10372712;28;20400;-65
2023/10/24 17:02:51;;;;;;;29.95;18.42;;;;;;;12.93;78.19;96442.41;10380991;28;20721;-64
2023/10/24 17:08:12;;;;;;;26.73;17.83;;;;;;;12.92;78.27;96463.38;10414447;28;20487;-66
2023/10/24 17:13:34;;;;;;;23.83;15.32;;;;;;;12.92;78.24;96457.75;10399517;28;20073;-65
2023/10/24 17:18:55;;;;;;;22.38;15.40;;;;;;;12.93;78.71;96442.41;10401293;28;20434;-67
2023/10/24 17:24:15;;;;;;;21.13;13.93;;;;;;;12.90;78.88;96449.28;10393414;28;20068;-68
2023/10/24 17:29:38;;;;;;;22.27;15.20;;;;;;;12.88;78.80;96446.41;10407144;28;20049;-67
2023/10/24 17:35:00;;;;;;;21.80;15.18;;;;;;;12.82;78.95;96449.69;10421401;28;20041;-66
2023/10/24 17:40:20;;;;;;;19.95;14.65;;;;;;;12.81;79.22;96456.66;10421378;28;20558;-65
2023/10/24 17:45:44;;;;;;;23.30;16.50;;;;;;;12.82;79.45;96452.50;10406587;28;20080;-66
2023/10/24 17:51:09;;;;;;;22.52;15.85;;;;;;;12.83;79.35;96453.94;10420844;28;20439;-67
2023/10/24 17:56:30;;;;;;;21.27;14.98;;;;;;;12.78;79.83;96452.34;10420878;28;20046;-64
2023/10/24 18:01:51;;;;;;;23.08;15.98;;;;;;;12.73;79.51;96447.94;10420676;28;20076;-63
2023/10/24 18:07:14;;;;;;;22.00;15.57;;;;;;;12.64;80.22;96443.41;10420276;28;20054;-64
2023/10/24 18:12:48;;;;;;;22.40;15.73;;;;;;;12.59;79.86;96439.00;10407532;28;20468;-65
2023/10/24 18:18:10;;;;;;;22.35;15.95;;;;;;;12.56;80.22;96431.91;10419334;28;20041;-64
2023/10/24 18:23:31;;;;;;;22.70;15.35;;;;;;;12.52;80.67;96440.13;10419943;28;20084;-64
2023/10/24 18:28:52;;;;;;;19.75;14.43;;;;;;;12.46;80.63;96437.84;10404627;28;20060;-64
2023/10/24 18:34:12;;;;;;;22.35;16.42;;;;;;;12.48;81.22;96453.97;10403968;28;20037;-65
2023/10/24 18:39:34;;;;;;;22.10;15.30;;;;;;;12.46;81.11;96437.13;10404014;28;20458;-67
2023/10/24 18:44:57;;;;;;;22.10;15.90;;;;;;;12.45;80.53;96458.78;10403072;28;20049;-65
2023/10/24 18:50:18;;;;;;;22.35;16.88;;;;;;;12.42;81.10;96439.75;10418980;28;20054;-66
2023/10/24 18:55:45;;;;;;;22.67;16.08;;;;;;;12.46;81.23;96443.44;10390325;28;20144;-66
2023/10/24 19:01:06;;;;;;;22.40;16.05;;;;;;;12.45;81.39;96432.84;10416130;28;20479;-66
2023/10/24 19:06:30;;;;;;;24.98;17.55;;;;;;;12.44;81.46;96437.00;10416456;28;20045;-65
2023/10/24 19:11:51;;;;;;;24.55;18.30;;;;;;;12.42;81.54;96428.53;10401869;28;20045;-67
2023/10/24 19:17:13;;;;;;;21.98;16.35;;;;;;;12.39;81.49;96424.22;10399780;28;20044;-67
2023/10/24 19:22:34;;;;;;;22.70;16.70;;;;;;;12.35;81.64;96410.78;10388146;28;20496;-67
2023/10/24 19:27:56;;;;;;;22.23;15.98;;;;;;;12.31;81.66;96411.34;10414588;28;20069;-66
2023/10/24 19:33:17;;;;;;;20.48;15.02;;;;;;;12.27;82.07;96402.81;10414691;28;20072;-67
2023/10/24 19:38:40;;;;;;;20.42;14.80;;;;;;;12.23;82.38;96401.91;10414697;28;20033;-65
2023/10/24 19:44:09;;;;;;;23.83;15.10;;;;;;;12.21;82.58;96396.25;10402226;28;20048;-65
2023/10/24 19:49:30;;;;;;;20.67;12.73;;;;;;;12.25;82.79;96404.78;10361610;28;20085;-65
2023/10/24 19:54:51;;;;;;;16.25;12.07;;;;;;;12.24;82.83;96412.47;10360643;28;20057;-65
2023/10/24 20:00:13;;;;;;;15.68;11.50;;;;;;;12.19;82.49;96410.88;10360503;28;20093;-66
2023/10/24 20:05:34;;;;;;;15.57;11.48;;;;;;;12.13;82.31;96418.31;10374261;28;20103;-64
2023/10/24 20:10:55;;;;;;;15.77;12.25;;;;;;;12.02;82.70;96409.50;10375226;28;20500;-68
2023/10/24 20:16:35;;;;;;;16.30;12.57;;;;;;;12.00;82.92;96405.91;10365198;28;20049;-69
2023/10/24 20:21:57;;;;;;;16.80;12.50;;;;;;;11.92;82.78;96417.47;10375919;28;20042;-65
2023/10/24 20:27:18;;;;;;;16.70;12.73;;;;;;;11.90;83.07;96411.09;10373675;28;20096;-68
2023/10/24 20:32:40;;;;;;;16.75;11.40;;;;;;;11.89;83.05;96412.44;10374460;28;20042;-65
2023/10/24 20:38:03;;;;;;;12.27;9.52;;;;;;;11.82;83.15;96403.09;10373450;28;20042;-65
2023/10/24 20:43:23;;;;;;;13.55;9.10;;;;;;;11.75;83.38;96392.97;10359705;28;20401;-67
2023/10/24 20:48:44;;;;;;;11.52;8.48;;;;;;;11.65;83.52;96387.69;10374061;28;20057;-65
2023/10/24 20:54:05;;;;;;;10.00;7.03;;;;;;;11.63;83.52;96398.78;10380034;28;20056;-66
2023/10/24 20:59:28;;;;;;;8.55;6.68;;;;;;;11.58;83.14;96390.84;10404677;28;20121;-66
2023/10/24 21:04:48;;;;;;;9.45;6.82;;;;;;;11.50;83.52;96380.09;10394810;28;20120;-66
2023/10/24 21:10:09;;;;;;;10.32;7.07;;;;;;;11.45;84.06;96400.81;10422948;28;20052;-66
2023/10/24 21:15:33;;;;;;;;;;;;;;;11.34;84.15;96402.47;10407975;28;20042;-66
2023/10/24 21:20:54;;;;;;;8.13;6.15;;;;;;;11.25;84.56;96391.56;10380464;28;20335;-66
2023/10/24 21:26:22;;;;;;;8.93;6.85;;;;;;;11.10;84.53;96393.75;10380244;28;20096;-66
2023/10/24 21:31:45;;;;;;;8.65;6.55;;;;;;;11.00;84.91;96386.97;10381092;28;20050;-66
2023/10/24 21:37:07;;;;;;;9.93;7.53;;;;;;;10.93;84.84;96382.50;10380097;28;20468;-65
2023/10/24 21:42:28;;;;;;;9.30;6.63;;;;;;;10.86;85.20;96389.88;10366153;28;20117;-66
2023/10/24 21:47:50;;;;;;;11.15;7.60;;;;;;;10.83;85.73;96402.31;10390537;28;20056;-69
2023/10/24 21:53:10;;;;;;;10.10;7.72;;;;;;;10.83;86.15;96402.31;10365514;28;20487;-65
2023/10/24 21:58:32;;;;;;;11.30;8.30;;;;;;;10.80;85.76;96406.34;10365625;28;20498;-65
2023/10/24 22:03:53;;;;;;;11.90;8.88;;;;;;;10.73;85.40;96399.06;10416751;28;20054;-66
2023/10/24 22:09:14;;;;;;;11.70;9.38;;;;;;;10.71;86.49;96408.06;10415922;28;20065;-66
2023/10/24 22:14:35;;;;;;;12.27;9.95;;;;;;;10.75;86.47;96401.94;10417039;28;20471;-67
2023/10/24 22:19:56;;;;;;;12.85;9.63;;;;;;;10.71;86.69;96410.13;10391806;28;20410;-66
2023/10/24 22:25:17;;;;;;;12.73;9.88;;;;;;;10.66;86.21;96411.28;10404063;28;20097;-66
2023/10/24 22:30:41;;;;;;;11.52;8.73;;;;;;;10.60;86.82;96418.03;10393535;28;20140;-66
2023/10/24 22:36:02;;;;;;;11.25;8.70;;;;;;;10.58;87.16;96423.53;10362311;28;20049;-66
2023/10/24 22:41:22;;;;;;;13.00;8.68;;;;;;;10.55;86.98;96421.28;10363534;28;20038;-66
2023/10/24 22:46:43;;;;;;;12.82;9.07;;;;;;;10.53;87.76;96430.28;10377217;28;20397;-66
2023/10/24 22:52:06;;;;;;;12.35;7.47;;;;;;;10.56;87.29;96419.91;10377072;28;20129;-66
2023/10/24 22:57:26;;;;;;;8.02;6.82;;;;;;;10.57;87.82;96416.50;10376536;28;20049;-66
2023/10/24 23:02:47;;;;;;;8.60;6.25;;;;;;;10.57;87.54;96413.72;10376641;28;20046;-66
2023/10/24 23:08:08;;;;;;;8.88;6.07;;;;;;;10.52;87.95;96417.69;10377274;28;20065;-66
2023/10/24 23:13:29;;;;;;;8.27;5.82;;;;;;;10.48;88.11;96419.53;10362566;28;20049;-66
2023/10/24 23:18:50;;;;;;;7.18;5.45;;;;;;;10.43;88.05;96421.44;10348050;28;20133;-66
2023/10/24 23:24:11;;;;;;;7.60;5.53;;;;;;;10.41;88.26;96421.31;10348322;28;20045;-66
2023/10/24 23:29:32;;;;;;;7.53;5.47;;;;;;;10.50;89.05;96430.78;10376671;28;20050;-66
2023/10/24 23:34:52;;;;;;;6.93;4.75;;;;;;;10.64;88.92;96427.94;10375223;28;20484;-67
2023/10/24 23:40:13;;;;;;;6.32;5.40;;;;;;;10.72;88.05;96429.03;10405180;28;20049;-66
2023/10/24 23:45:35;;;;;;;6.88;5.30;;;;;;;10.72;88.67;96417.16;10361402;28;20072;-66
2023/10/24 23:50:55;;;;;;;7.10;5.57;;;;;;;10.76;88.71;96434.81;10374887;28;20073;-65
2023/10/24 23:56:16;;;;;;;6.32;5.07;;;;;;;10.85;88.76;96444.28;10397330;28;20057;-66
